MSC Maria Saveria — 3FLE8 — position and weather

sailwx.info

Track history (hours):
 
Tides and Currents Weather Stations Pressure Air Temp Water Temp Dewpoint Dewpoint Depression Visibility Wind Speed Wind Dir Waves Ship Positions

MSC Maria Saveria

Last reported at 2015-May-05 07:14 UTC. Time now 2015-May-05 09:14 UTC.
Position N 37°02' E 003°07'.

Length 366 m; draft 15.3 m.

Type: Ship (hazmat cat A). MMSI: 372400000.

Date/timePositionNaut miles runAvg speedWind from/ knotsBaromVisibWave heightAir tempDewpointWater temp
2015-May-05 07:14N 37°02' E 003°07'1419.8
2015-May-05 06:33N 36°59' E 002°51'1919.4
2015-May-05 05:33N 36°56' E 002°27'1919.2
2015-May-05 04:33N 36°53' E 002°03'2020.2
2015-May-05 03:33N 36°50' E 001°38'2020.0
2015-May-05 02:33N 36°47' E 001°14'2019.7
2015-May-05 01:33N 36°44' E 000°49'1919.4
2015-May-05 00:33N 36°41' E 000°26'1919.0
2015-May-04 23:34N 36°38' E 000°02'1918.8
2015-May-04 22:33N 36°36' W 000°21'1918.9
2015-May-04 21:33N 36°33' W 000°44'1918.7
2015-May-04 20:34N 36°30' W 001°07'1918.7
2015-May-04 19:34N 36°26' W 001°30'1818.4
2015-May-04 18:34N 36°24' W 001°53'1818.2
2015-May-04 17:34N 36°21' W 002°15'1919.1
2015-May-04 16:34N 36°19' W 002°39'1919.3
2015-May-04 15:33N 36°16' W 003°02'1919.2
2015-May-04 14:34N 36°13' W 003°26'2218.9
2015-May-04 13:23N 36°09' W 003°53'6319.8
2015-May-04 10:13N 36°01' W 005°10'1218.3
2015-May-04 09:33N 36°06' W 005°23'4 3.6
2015-May-04 08:33N 36°09' W 005°26'0 0.0
2015-May-04 07:33N 36°09' W 005°26'0 0.0
2015-May-04 06:33N 36°09' W 005°26'0 0.0
2015-May-04 05:33N 36°09' W 005°26'0 0.0
2015-May-04 04:33N 36°09' W 005°26'0 0.0
2015-May-04 03:33N 36°09' W 005°26'0 0.0
2015-May-04 02:33N 36°09' W 005°26'0 0.0
2015-May-04 01:33N 36°09' W 005°26'0 0.0
2015-May-04 00:33N 36°09' W 005°26'0 0.0
2015-May-03 23:33N 36°09' W 005°26'0 0.0
2015-May-03 22:33N 36°09' W 005°26'0 0.0
2015-May-03 21:33N 36°09' W 005°26'0 0.0
2015-May-03 20:33N 36°09' W 005°26'0 0.0
2015-May-03 19:09N 36°09' W 005°26'0 0.0
2015-May-03 18:33N 36°09' W 005°26'0 0.0
2015-May-03 17:27N 36°09' W 005°26'0 0.0
2015-May-03 16:33N 36°09' W 005°26'0 0.0
2015-May-03 15:33N 36°09' W 005°26'0 0.0
2015-May-03 14:33N 36°09' W 005°26'0 0.0
2015-May-03 13:33N 36°09' W 005°26'0 0.0
2015-May-03 12:33N 36°09' W 005°26'0 0.0
2015-May-03 11:33N 36°09' W 005°26'0 0.0
2015-May-03 10:33N 36°09' W 005°26'2 1.6
2015-May-03 09:33N 36°08' W 005°24'6 6.1
2015-May-03 08:33N 36°04' W 005°19'5 5.2
2015-May-03 07:33N 35°59' W 005°18'66 3.7
2015-May-02 13:31N 35°55' W 006°39'1312.0
2015-May-02 12:27N 35°60' W 006°54'1111.8
2015-May-02 11:34N 36°03' W 007°06'1211.9
2015-May-02 10:33N 36°06' W 007°21'1212.6
2015-May-02 09:33N 36°09' W 007°36'1413.7
2015-May-02 08:33N 36°13' W 007°52'2019.8
2015-May-02 07:33N 36°19' W 008°15'1414.0
2015-May-02 06:33N 36°23' W 008°32'1313.4
2015-May-02 05:33N 36°27' W 008°48'1313.1
2015-May-02 04:33N 36°30' W 009°04'1312.7
2015-May-02 03:33N 36°35' W 009°18'1313.0
2015-May-02 02:33N 36°44' W 009°29'1312.6
2015-May-02 01:33N 36°56' W 009°36'1413.5
2015-May-02 00:33N 37°09' W 009°39'1413.6
2015-May-01 23:33N 37°22' W 009°43'1413.5
2015-May-01 22:33N 37°36' W 009°46'1313.5
2015-May-01 21:33N 37°49' W 009°50'1313.2
2015-May-01 20:33N 38°02' W 009°54'1312.9
2015-May-01 19:33N 38°14' W 009°58'1313.2
2015-May-01 18:33N 38°27' W 010°02'1313.2
2015-May-01 17:33N 38°40' W 010°05'1312.8
2015-May-01 16:33N 38°53' W 010°06'1313.2
2015-May-01 15:33N 39°06' W 010°06'1312.7
2015-May-01 14:33N 39°19' W 010°07'1312.8
2015-May-01 13:33N 39°31' W 010°07'1413.1
2015-May-01 12:28N 39°46' W 010°07'67816.2
2015-Apr-29 18:33N 49°55' W 003°07'13919.9
2015-Apr-29 11:34N 50°33' E 000°23'2020.5
2015-Apr-29 10:34N 50°43' E 000°51'2019.7
2015-Apr-29 09:33N 50°54' E 001°17'1918.6
2015-Apr-29 08:34N 51°08' E 001°36'1818.3
2015-Apr-29 07:34N 51°24' E 001°52'2020.5
2015-Apr-29 06:34N 51°44' E 001°45'1413.5
2015-Apr-29 05:33N 51°55' E 001°33'9 9.2
2015-Apr-29 04:33N 51°57' E 001°19'0 0.0
2015-Apr-29 03:31N 51°57' E 001°19'0 0.0
2015-Apr-29 02:31N 51°57' E 001°19'0 0.0
2015-Apr-29 01:31N 51°57' E 001°19'0 0.0
2015-Apr-29 00:31N 51°57' E 001°19'0 0.0
2015-Apr-28 23:31N 51°57' E 001°19'0 0.0
2015-Apr-28 22:34N 51°57' E 001°19'0 0.0
2015-Apr-28 21:31N 51°57' E 001°19'0 0.0
2015-Apr-28 20:31N 51°57' E 001°19'0 0.0
2015-Apr-28 19:31N 51°57' E 001°19'0 0.0
2015-Apr-28 18:31N 51°57' E 001°19'0 0.0
2015-Apr-28 17:31N 51°57' E 001°19'0 0.0
2015-Apr-28 16:31N 51°57' E 001°19'0 0.0
2015-Apr-28 15:30N 51°57' E 001°19'0 0.0
2015-Apr-28 14:31N 51°57' E 001°19'0 0.0
2015-Apr-28 13:31N 51°57' E 001°19'0 0.0
2015-Apr-28 12:31N 51°57' E 001°19'0 0.0
2015-Apr-28 11:31N 51°57' E 001°19'0 0.0
2015-Apr-28 10:31N 51°57' E 001°19'0 0.0
2015-Apr-28 09:31N 51°57' E 001°19'0 0.0
2015-Apr-28 08:34N 51°57' E 001°19'0 0.0
2015-Apr-28 07:33N 51°57' E 001°19'0 0.0
2015-Apr-28 06:34N 51°57' E 001°19'0 0.0
2015-Apr-28 05:28N 51°57' E 001°19'0 0.0
2015-Apr-28 04:30N 51°57' E 001°19'0 0.0
2015-Apr-28 03:28N 51°57' E 001°19'0 0.0
2015-Apr-28 02:33N 51°57' E 001°19'1 1.5
2015-Apr-28 01:33N 51°55' E 001°20'1110.6
2015-Apr-28 00:34N 51°52' E 001°36'4 3.6
2015-Apr-27 23:31N 51°53' E 001°41'0 0.0
2015-Apr-27 22:31N 51°53' E 001°41'0 0.0
2015-Apr-27 21:31N 51°53' E 001°41'0 0.0
2015-Apr-27 20:31N 51°53' E 001°41'0 0.1
2015-Apr-27 19:31N 51°53' E 001°41'0 0.1
2015-Apr-27 18:33N 51°53' E 001°41'0 0.0
2015-Apr-27 17:33N 51°53' E 001°41'0 0.0
2015-Apr-27 16:33N 51°53' E 001°41'0 0.0
2015-Apr-27 15:33N 51°53' E 001°41'0 0.0
2015-Apr-27 14:33N 51°53' E 001°41'0 0.0
2015-Apr-27 13:33N 51°53' E 001°41'0 0.0
2015-Apr-27 12:33N 51°53' E 001°41'0 0.0
2015-Apr-27 11:33N 51°53' E 001°41'0 0.0
2015-Apr-27 10:33N 51°53' E 001°41'0 0.0
2015-Apr-27 09:33N 51°53' E 001°41'0 0.0
2015-Apr-27 08:33N 51°53' E 001°41'0 0.0
2015-Apr-27 07:33N 51°53' E 001°41'5 4.6
2015-Apr-27 06:34N 51°50' E 001°47'1717.1
2015-Apr-27 05:34N 51°34' E 001°54'1514.9
2015-Apr-27 04:33N 51°41' E 002°16'1817.6
2015-Apr-27 03:33N 51°53' E 002°36'1817.6
2015-Apr-27 02:33N 52°02' E 003°00'1817.6
2015-Apr-27 01:33N 52°03' E 003°29'1615.6
2015-Apr-27 00:33N 52°03' E 003°54'8 8.2
2015-Apr-26 23:33N 51°58' E 004°05'1 0.7
2015-Apr-26 22:32N 51°58' E 004°04'0 0.0
2015-Apr-26 21:32N 51°58' E 004°04'0 0.0
2015-Apr-26 20:32N 51°58' E 004°04'0 0.0
2015-Apr-26 19:32N 51°58' E 004°04'0 0.0
2015-Apr-26 18:32N 51°58' E 004°04'0 0.0
2015-Apr-26 17:29N 51°58' E 004°04'0 0.0
2015-Apr-26 16:32N 51°58' E 004°04'0 0.0
2015-Apr-26 15:32N 51°58' E 004°04'0 0.0
2015-Apr-26 14:32N 51°58' E 004°04'0 0.0
2015-Apr-26 13:32N 51°58' E 004°04'0 0.0
2015-Apr-26 12:33N 51°58' E 004°04'0 0.0
2015-Apr-26 11:32N 51°58' E 004°04'0 0.0
2015-Apr-26 10:32N 51°58' E 004°04'0 0.0
2015-Apr-26 09:32N 51°58' E 004°04'0 0.0
2015-Apr-26 08:32N 51°58' E 004°04'0 0.0
2015-Apr-26 07:32N 51°58' E 004°04'0 0.0
2015-Apr-26 06:33N 51°58' E 004°04'2 1.7
2015-Apr-26 05:33N 51°59' E 004°03'1110.9
2015-Apr-26 04:33N 52°02' E 003°46'7 3.2
2015-Apr-26 02:31N 52°08' E 003°42'0 0.0
2015-Apr-26 01:31N 52°08' E 003°42'0 0.1
2015-Apr-26 00:16N 52°08' E 003°42'0 0.1
2015-Apr-25 23:31N 52°08' E 003°42'0 0.0
2015-Apr-25 22:25N 52°08' E 003°42'0 0.0
2015-Apr-25 21:31N 52°08' E 003°42'0 0.0
2015-Apr-25 20:31N 52°08' E 003°42'0 0.0
2015-Apr-25 19:31N 52°08' E 003°42'0 0.0
2015-Apr-25 18:31N 52°08' E 003°42'0 0.0
2015-Apr-25 17:31N 52°08' E 003°42'0 0.0
2015-Apr-25 16:31N 52°08' E 003°42'0 0.0
2015-Apr-25 15:31N 52°08' E 003°42'0 0.0
2015-Apr-25 14:31N 52°08' E 003°42'0 0.0
2015-Apr-25 13:19N 52°08' E 003°42'0 0.1
2015-Apr-25 12:31N 52°08' E 003°42'0 0.0
2015-Apr-25 11:31N 52°08' E 003°42'0 0.0
2015-Apr-25 10:31N 52°08' E 003°42'0 0.0
2015-Apr-25 09:31N 52°08' E 003°42'0 0.0
2015-Apr-25 08:28N 52°08' E 003°42'0 0.0
2015-Apr-25 07:31N 52°08' E 003°42'  
Track history (hours):
 
Tides and Currents Weather Stations Pressure Air Temp Water Temp Dewpoint Dewpoint Depression Visibility Wind Speed Wind Dir Waves Ship Positions

MSC Maria Saveria

Last reported at 2015-May-05 07:14 UTC. Time now 2015-May-05 09:14 UTC.
Position N 37°02' E 003°07'.

Length 366 m; draft 15.3 m.

Type: Ship (hazmat cat A). MMSI: 372400000.

Date/timePositionNaut miles runAvg speedWind from/ knotsBaromVisibWave heightAir tempDewpointWater temp
2015-May-05 07:14N 37°02' E 003°07'1419.8
2015-May-05 06:33N 36°59' E 002°51'1919.4
2015-May-05 05:33N 36°56' E 002°27'1919.2
2015-May-05 04:33N 36°53' E 002°03'2020.2
2015-May-05 03:33N 36°50' E 001°38'2020.0
2015-May-05 02:33N 36°47' E 001°14'2019.7
2015-May-05 01:33N 36°44' E 000°49'1919.4
2015-May-05 00:33N 36°41' E 000°26'1919.0
2015-May-04 23:34N 36°38' E 000°02'1918.8
2015-May-04 22:33N 36°36' W 000°21'1918.9
2015-May-04 21:33N 36°33' W 000°44'1918.7
2015-May-04 20:34N 36°30' W 001°07'1918.7
2015-May-04 19:34N 36°26' W 001°30'1818.4
2015-May-04 18:34N 36°24' W 001°53'1818.2
2015-May-04 17:34N 36°21' W 002°15'1919.1
2015-May-04 16:34N 36°19' W 002°39'1919.3
2015-May-04 15:33N 36°16' W 003°02'1919.2
2015-May-04 14:34N 36°13' W 003°26'2218.9
2015-May-04 13:23N 36°09' W 003°53'6319.8
2015-May-04 10:13N 36°01' W 005°10'1218.3
2015-May-04 09:33N 36°06' W 005°23'4 3.6
2015-May-04 08:33N 36°09' W 005°26'0 0.0
2015-May-04 07:33N 36°09' W 005°26'0 0.0
2015-May-04 06:33N 36°09' W 005°26'0 0.0
2015-May-04 05:33N 36°09' W 005°26'0 0.0
2015-May-04 04:33N 36°09' W 005°26'0 0.0
2015-May-04 03:33N 36°09' W 005°26'0 0.0
2015-May-04 02:33N 36°09' W 005°26'0 0.0
2015-May-04 01:33N 36°09' W 005°26'0 0.0
2015-May-04 00:33N 36°09' W 005°26'0 0.0
2015-May-03 23:33N 36°09' W 005°26'0 0.0
2015-May-03 22:33N 36°09' W 005°26'0 0.0
2015-May-03 21:33N 36°09' W 005°26'0 0.0
2015-May-03 20:33N 36°09' W 005°26'0 0.0
2015-May-03 19:09N 36°09' W 005°26'0 0.0
2015-May-03 18:33N 36°09' W 005°26'0 0.0
2015-May-03 17:27N 36°09' W 005°26'0 0.0
2015-May-03 16:33N 36°09' W 005°26'0 0.0
2015-May-03 15:33N 36°09' W 005°26'0 0.0
2015-May-03 14:33N 36°09' W 005°26'0 0.0
2015-May-03 13:33N 36°09' W 005°26'0 0.0
2015-May-03 12:33N 36°09' W 005°26'0 0.0
2015-May-03 11:33N 36°09' W 005°26'0 0.0
2015-May-03 10:33N 36°09' W 005°26'2 1.6
2015-May-03 09:33N 36°08' W 005°24'6 6.1
2015-May-03 08:33N 36°04' W 005°19'5 5.2
2015-May-03 07:33N 35°59' W 005°18'66 3.7
2015-May-02 13:31N 35°55' W 006°39'1312.0
2015-May-02 12:27N 35°60' W 006°54'1111.8
2015-May-02 11:34N 36°03' W 007°06'1211.9
2015-May-02 10:33N 36°06' W 007°21'1212.6
2015-May-02 09:33N 36°09' W 007°36'1413.7
2015-May-02 08:33N 36°13' W 007°52'2019.8
2015-May-02 07:33N 36°19' W 008°15'1414.0
2015-May-02 06:33N 36°23' W 008°32'1313.4
2015-May-02 05:33N 36°27' W 008°48'1313.1
2015-May-02 04:33N 36°30' W 009°04'1312.7
2015-May-02 03:33N 36°35' W 009°18'1313.0
2015-May-02 02:33N 36°44' W 009°29'1312.6
2015-May-02 01:33N 36°56' W 009°36'1413.5
2015-May-02 00:33N 37°09' W 009°39'1413.6
2015-May-01 23:33N 37°22' W 009°43'1413.5
2015-May-01 22:33N 37°36' W 009°46'1313.5
2015-May-01 21:33N 37°49' W 009°50'1313.2
2015-May-01 20:33N 38°02' W 009°54'1312.9
2015-May-01 19:33N 38°14' W 009°58'1313.2
2015-May-01 18:33N 38°27' W 010°02'1313.2
2015-May-01 17:33N 38°40' W 010°05'1312.8
2015-May-01 16:33N 38°53' W 010°06'1313.2
2015-May-01 15:33N 39°06' W 010°06'1312.7
2015-May-01 14:33N 39°19' W 010°07'1312.8
2015-May-01 13:33N 39°31' W 010°07'1413.1
2015-May-01 12:28N 39°46' W 010°07'67816.2
2015-Apr-29 18:33N 49°55' W 003°07'13919.9
2015-Apr-29 11:34N 50°33' E 000°23'2020.5
2015-Apr-29 10:34N 50°43' E 000°51'2019.7
2015-Apr-29 09:33N 50°54' E 001°17'1918.6
2015-Apr-29 08:34N 51°08' E 001°36'1818.3
2015-Apr-29 07:34N 51°24' E 001°52'2020.5
2015-Apr-29 06:34N 51°44' E 001°45'1413.5
2015-Apr-29 05:33N 51°55' E 001°33'9 9.2
2015-Apr-29 04:33N 51°57' E 001°19'0 0.0
2015-Apr-29 03:31N 51°57' E 001°19'0 0.0
2015-Apr-29 02:31N 51°57' E 001°19'0 0.0
2015-Apr-29 01:31N 51°57' E 001°19'0 0.0
2015-Apr-29 00:31N 51°57' E 001°19'0 0.0
2015-Apr-28 23:31N 51°57' E 001°19'0 0.0
2015-Apr-28 22:34N 51°57' E 001°19'0 0.0
2015-Apr-28 21:31N 51°57' E 001°19'0 0.0
2015-Apr-28 20:31N 51°57' E 001°19'0 0.0
2015-Apr-28 19:31N 51°57' E 001°19'0 0.0
2015-Apr-28 18:31N 51°57' E 001°19'0 0.0
2015-Apr-28 17:31N 51°57' E 001°19'0 0.0
2015-Apr-28 16:31N 51°57' E 001°19'0 0.0
2015-Apr-28 15:30N 51°57' E 001°19'0 0.0
2015-Apr-28 14:31N 51°57' E 001°19'0 0.0
2015-Apr-28 13:31N 51°57' E 001°19'0 0.0
2015-Apr-28 12:31N 51°57' E 001°19'0 0.0
2015-Apr-28 11:31N 51°57' E 001°19'0 0.0
2015-Apr-28 10:31N 51°57' E 001°19'0 0.0
2015-Apr-28 09:31N 51°57' E 001°19'0 0.0
2015-Apr-28 08:34N 51°57' E 001°19'0 0.0
2015-Apr-28 07:33N 51°57' E 001°19'0 0.0
2015-Apr-28 06:34N 51°57' E 001°19'0 0.0
2015-Apr-28 05:28N 51°57' E 001°19'0 0.0
2015-Apr-28 04:30N 51°57' E 001°19'0 0.0
2015-Apr-28 03:28N 51°57' E 001°19'0 0.0
2015-Apr-28 02:33N 51°57' E 001°19'1 1.5
2015-Apr-28 01:33N 51°55' E 001°20'1110.6
2015-Apr-28 00:34N 51°52' E 001°36'4 3.6
2015-Apr-27 23:31N 51°53' E 001°41'0 0.0
2015-Apr-27 22:31N 51°53' E 001°41'0 0.0
2015-Apr-27 21:31N 51°53' E 001°41'0 0.0
2015-Apr-27 20:31N 51°53' E 001°41'0 0.1
2015-Apr-27 19:31N 51°53' E 001°41'0 0.1
2015-Apr-27 18:33N 51°53' E 001°41'0 0.0
2015-Apr-27 17:33N 51°53' E 001°41'0 0.0
2015-Apr-27 16:33N 51°53' E 001°41'0 0.0
2015-Apr-27 15:33N 51°53' E 001°41'0 0.0
2015-Apr-27 14:33N 51°53' E 001°41'0 0.0
2015-Apr-27 13:33N 51°53' E 001°41'0 0.0
2015-Apr-27 12:33N 51°53' E 001°41'0 0.0
2015-Apr-27 11:33N 51°53' E 001°41'0 0.0
2015-Apr-27 10:33N 51°53' E 001°41'0 0.0
2015-Apr-27 09:33N 51°53' E 001°41'0 0.0
2015-Apr-27 08:33N 51°53' E 001°41'0 0.0
2015-Apr-27 07:33N 51°53' E 001°41'5 4.6
2015-Apr-27 06:34N 51°50' E 001°47'1717.1
2015-Apr-27 05:34N 51°34' E 001°54'1514.9
2015-Apr-27 04:33N 51°41' E 002°16'1817.6
2015-Apr-27 03:33N 51°53' E 002°36'1817.6
2015-Apr-27 02:33N 52°02' E 003°00'1817.6
2015-Apr-27 01:33N 52°03' E 003°29'1615.6
2015-Apr-27 00:33N 52°03' E 003°54'8 8.2
2015-Apr-26 23:33N 51°58' E 004°05'1 0.7
2015-Apr-26 22:32N 51°58' E 004°04'0 0.0
2015-Apr-26 21:32N 51°58' E 004°04'0 0.0
2015-Apr-26 20:32N 51°58' E 004°04'0 0.0
2015-Apr-26 19:32N 51°58' E 004°04'0 0.0
2015-Apr-26 18:32N 51°58' E 004°04'0 0.0
2015-Apr-26 17:29N 51°58' E 004°04'0 0.0
2015-Apr-26 16:32N 51°58' E 004°04'0 0.0
2015-Apr-26 15:32N 51°58' E 004°04'0 0.0
2015-Apr-26 14:32N 51°58' E 004°04'0 0.0
2015-Apr-26 13:32N 51°58' E 004°04'0 0.0
2015-Apr-26 12:33N 51°58' E 004°04'0 0.0
2015-Apr-26 11:32N 51°58' E 004°04'0 0.0
2015-Apr-26 10:32N 51°58' E 004°04'0 0.0
2015-Apr-26 09:32N 51°58' E 004°04'0 0.0
2015-Apr-26 08:32N 51°58' E 004°04'0 0.0
2015-Apr-26 07:32N 51°58' E 004°04'0 0.0
2015-Apr-26 06:33N 51°58' E 004°04'2 1.7
2015-Apr-26 05:33N 51°59' E 004°03'1110.9
2015-Apr-26 04:33N 52°02' E 003°46'7 3.2
2015-Apr-26 02:31N 52°08' E 003°42'0 0.0
2015-Apr-26 01:31N 52°08' E 003°42'0 0.1
2015-Apr-26 00:16N 52°08' E 003°42'0 0.1
2015-Apr-25 23:31N 52°08' E 003°42'0 0.0
2015-Apr-25 22:25N 52°08' E 003°42'0 0.0
2015-Apr-25 21:31N 52°08' E 003°42'0 0.0
2015-Apr-25 20:31N 52°08' E 003°42'0 0.0
2015-Apr-25 19:31N 52°08' E 003°42'0 0.0
2015-Apr-25 18:31N 52°08' E 003°42'0 0.0
2015-Apr-25 17:31N 52°08' E 003°42'0 0.0
2015-Apr-25 16:31N 52°08' E 003°42'0 0.0
2015-Apr-25 15:31N 52°08' E 003°42'0 0.0
2015-Apr-25 14:31N 52°08' E 003°42'0 0.0
2015-Apr-25 13:19N 52°08' E 003°42'0 0.1
2015-Apr-25 12:31N 52°08' E 003°42'0 0.0
2015-Apr-25 11:31N 52°08' E 003°42'0 0.0
2015-Apr-25 10:31N 52°08' E 003°42'0 0.0
2015-Apr-25 09:31N 52°08' E 003°42'0 0.0
2015-Apr-25 08:28N 52°08' E 003°42'0 0.0
2015-Apr-25 07:31N 52°08' E 003°42'  

Dump ship's entire track history